createdAt,value
2022-09-01T00:00:23.639Z,15.84
2022-09-01T00:04:27.043Z,15.83
2022-09-01T00:08:28.704Z,15.90
2022-09-01T00:12:30.413Z,15.69
2022-09-01T00:16:31.973Z,15.81
2022-09-01T00:20:33.557Z,15.99
2022-09-01T00:24:35.604Z,15.95
2022-09-01T00:28:37.886Z,15.83
2022-09-01T00:32:39.433Z,15.71
2022-09-01T00:36:41.055Z,15.79
2022-09-01T00:40:42.590Z,15.71
2022-09-01T00:44:44.084Z,15.62
2022-09-01T00:48:53.605Z,15.66
2022-09-01T00:52:56.321Z,15.45
2022-09-01T00:56:58.412Z,15.48
2022-09-01T01:01:00.221Z,15.42
2022-09-01T01:05:03.822Z,15.54
2022-09-01T01:09:05.510Z,15.39
2022-09-01T01:13:10.692Z,15.37
2022-09-01T01:17:12.132Z,15.53
2022-09-01T01:21:38.064Z,15.58
2022-09-01T01:25:45.297Z,15.60
2022-09-01T01:29:47.661Z,15.46
2022-09-01T01:33:52.757Z,15.48
2022-09-01T01:37:54.950Z,15.56
2022-09-01T01:41:58.750Z,15.45
2022-09-01T01:46:02.638Z,15.33
2022-09-01T01:50:09.253Z,15.48
2022-09-01T01:54:11.048Z,15.15
2022-09-01T01:58:12.623Z,15.13
2022-09-01T02:02:14.218Z,15.17
2022-09-01T02:06:15.757Z,15.18
2022-09-01T02:10:17.301Z,14.96
2022-09-01T02:14:21.689Z,15.07
2022-09-01T02:18:28.419Z,15.24
2022-09-01T02:22:29.839Z,15.03
2022-09-01T02:26:42.906Z,14.97
2022-09-01T02:30:46.934Z,14.89
2022-09-01T02:34:53.853Z,15.01
2022-09-01T02:38:56.885Z,14.74
2022-09-01T02:43:00.143Z,14.64
2022-09-01T02:47:01.842Z,14.89
2022-09-01T02:51:06.934Z,14.85
2022-09-01T02:55:09.748Z,14.90
2022-09-01T02:59:13.072Z,14.89
2022-09-01T03:03:17.516Z,14.96
2022-09-01T03:07:21.792Z,14.60
2022-09-01T03:11:24.288Z,14.49
2022-09-01T03:15:27.437Z,14.72
2022-09-01T03:19:32.269Z,14.72
2022-09-01T03:23:34.813Z,14.61
2022-09-01T03:27:36.258Z,14.27
2022-09-01T03:31:38.193Z,14.14
2022-09-01T03:35:39.744Z,14.44
2022-09-01T03:39:41.381Z,14.38
2022-09-01T03:43:47.102Z,13.80
2022-09-01T03:47:49.690Z,14.16
2022-09-01T03:51:53.886Z,13.61
2022-09-01T03:55:57.470Z,13.97
2022-09-01T04:00:00.118Z,13.84
2022-09-01T04:04:03.062Z,13.89
2022-09-01T04:08:11.125Z,13.79
2022-09-01T04:12:15.735Z,13.65
2022-09-01T04:16:47.220Z,13.56
2022-09-01T04:20:56.771Z,13.03
2022-09-01T04:24:59.150Z,13.42
2022-09-01T04:29:01.019Z,13.28
2022-09-01T04:33:02.551Z,12.98
2022-09-01T04:37:09.536Z,13.26
2022-09-01T04:41:16.508Z,13.15
2022-09-01T04:45:25.207Z,13.13
2022-09-01T04:49:27.012Z,12.94
2022-09-01T04:53:29.455Z,13.17
2022-09-01T04:57:31.503Z,13.30
2022-09-01T05:01:44.022Z,13.26
2022-09-01T05:05:45.978Z,13.27
2022-09-01T05:09:47.447Z,13.13
2022-09-01T05:13:49.268Z,12.82
2022-09-01T05:17:52.607Z,12.84
2022-09-01T05:21:57.108Z,12.83
2022-09-01T05:25:59.054Z,13.12
2022-09-01T05:30:02.569Z,13.20
2022-09-01T05:34:04.952Z,13.23
2022-09-01T05:38:13.043Z,13.36
2022-09-01T05:42:14.588Z,13.64
2022-09-01T05:46:20.651Z,13.64
2022-09-01T05:50:22.735Z,13.97
2022-09-01T05:54:27.339Z,13.84
2022-09-01T05:59:22.363Z,13.90
2022-09-01T06:02:52.701Z,14.09
2022-09-01T06:07:06.919Z,14.22
2022-09-01T06:11:15.024Z,14.32
2022-09-01T06:15:18.523Z,14.52
2022-09-01T06:19:21.037Z,14.56
2022-09-01T06:23:22.682Z,14.49
2022-09-01T06:27:24.147Z,14.72
2022-09-01T06:31:28.544Z,14.79
2022-09-01T06:35:30.055Z,14.96
2022-09-01T06:39:31.752Z,14.98
2022-09-01T06:43:33.486Z,15.13
2022-09-01T06:47:35.382Z,15.08
2022-09-01T06:51:37.581Z,15.38
2022-09-01T06:55:40.302Z,15.35
2022-09-01T06:59:41.876Z,15.66
2022-09-01T07:03:47.646Z,15.71
2022-09-01T07:08:05.372Z,15.81
2022-09-01T07:12:24.380Z,15.93
2022-09-01T07:16:32.471Z,16.16
2022-09-01T07:21:02.715Z,16.21
2022-09-01T07:25:16.797Z,16.28
2022-09-01T07:29:19.948Z,16.46
2022-09-01T07:38:48.039Z,16.68
2022-09-01T07:46:40.548Z,16.83
2022-09-01T07:55:11.152Z,17.40
2022-09-01T07:59:15.402Z,17.46
2022-09-01T08:03:19.995Z,17.61
2022-09-01T08:07:21.599Z,17.93
2022-09-01T08:11:51.483Z,18.07
2022-09-01T08:20:10.463Z,18.49
2022-09-01T08:24:15.866Z,18.43
2022-09-01T08:28:26.430Z,18.66
2022-09-01T08:32:28.522Z,18.92
2022-09-01T08:36:30.036Z,19.06
2022-09-01T08:40:31.579Z,19.09
2022-09-01T08:44:45.834Z,18.95
2022-09-01T08:53:24.106Z,19.46
2022-09-01T08:57:32.791Z,19.53
2022-09-01T09:01:37.289Z,19.65
2022-09-01T09:06:03.995Z,19.80
2022-09-01T09:10:21.542Z,19.94
2022-09-01T09:14:41.147Z,20.00
2022-09-01T09:19:00.608Z,20.65
2022-09-01T09:23:11.784Z,20.60
2022-09-01T09:27:31.996Z,20.99
2022-09-01T09:31:45.879Z,21.50
2022-09-01T09:35:48.014Z,20.88
2022-09-01T09:40:10.248Z,20.66
2022-09-01T09:44:30.772Z,20.66
2022-09-01T09:48:34.159Z,21.09
2022-09-01T09:52:35.612Z,20.13
2022-09-01T09:56:37.204Z,20.10
2022-09-01T10:00:40.143Z,20.46
2022-09-01T10:04:42.514Z,20.45
2022-09-01T10:08:45.796Z,19.83
2022-09-01T10:12:47.307Z,19.85
2022-09-01T10:16:56.099Z,20.00
2022-09-01T10:21:04.353Z,21.14
2022-09-01T10:25:10.349Z,22.17
2022-09-01T10:29:47.531Z,22.15
2022-09-01T10:33:50.842Z,22.05
2022-09-01T10:37:55.727Z,22.14
2022-09-01T10:42:08.908Z,21.71
2022-09-01T10:46:24.785Z,20.95
2022-09-01T10:50:35.438Z,21.17
2022-09-01T10:54:50.818Z,22.29
2022-09-01T11:03:42.031Z,22.68
2022-09-01T11:08:01.561Z,21.59
2022-09-01T11:12:11.708Z,21.31
2022-09-01T11:16:46.984Z,21.37
2022-09-01T11:20:50.523Z,20.91
2022-09-01T11:25:38.777Z,20.71
2022-09-01T11:30:08.618Z,20.78
2022-09-01T11:34:19.081Z,21.18
2022-09-01T11:38:21.442Z,21.43
2022-09-01T11:42:36.838Z,20.78
2022-09-01T11:46:45.802Z,20.40
2022-09-01T11:50:59.881Z,20.25
2022-09-01T11:55:02.397Z,20.66
2022-09-01T11:59:03.860Z,20.56
2022-09-01T12:03:20.315Z,20.63
2022-09-01T12:07:39.636Z,20.74
2022-09-01T12:11:41.850Z,20.57
2022-09-01T12:16:07.102Z,20.80
2022-09-01T12:20:35.460Z,21.58
2022-09-01T12:24:37.047Z,21.21
2022-09-01T12:28:41.271Z,21.20
2022-09-01T12:32:43.450Z,20.87
2022-09-01T12:37:10.600Z,20.91
2022-09-01T12:41:35.195Z,21.57
2022-09-01T12:45:43.447Z,21.34
2022-09-01T12:49:50.619Z,21.74
2022-09-01T12:54:04.687Z,21.47
2022-09-01T12:58:09.100Z,21.69
2022-09-01T13:02:33.418Z,21.11
2022-09-01T13:06:35.036Z,21.37
2022-09-01T13:10:39.617Z,21.56
2022-09-01T13:14:41.082Z,21.84
2022-09-01T13:23:05.469Z,21.68
2022-09-01T13:27:22.965Z,22.24
2022-09-01T13:31:29.065Z,22.82
2022-09-01T13:35:31.585Z,23.03
2022-09-01T13:39:33.072Z,24.26
2022-09-01T13:43:35.379Z,24.39
2022-09-01T13:48:15.287Z,24.22
2022-09-01T13:51:58.277Z,25.38
2022-09-01T13:55:59.783Z,25.70
2022-09-01T14:00:01.200Z,25.19
2022-09-01T14:04:06.098Z,24.49
2022-09-01T14:08:08.957Z,24.90
2022-09-01T14:12:10.434Z,23.16
2022-09-01T14:16:13.559Z,23.54
2022-09-01T14:20:19.477Z,23.91
2022-09-01T14:24:21.236Z,23.65
2022-09-01T14:28:23.296Z,22.92
2022-09-01T14:32:26.699Z,22.37
2022-09-01T14:36:29.036Z,23.14
2022-09-01T14:40:30.709Z,23.49
2022-09-01T14:44:33.923Z,22.46
2022-09-01T14:48:35.778Z,23.32
2022-09-01T14:52:37.482Z,24.33
2022-09-01T14:56:39.952Z,24.90
2022-09-01T15:00:42.200Z,25.17
2022-09-01T15:04:43.877Z,25.58
2022-09-01T15:08:46.944Z,23.98
2022-09-01T15:12:49.782Z,23.98
2022-09-01T15:16:51.885Z,23.35
2022-09-01T15:20:54.986Z,23.66
2022-09-01T15:24:56.396Z,23.87
2022-09-01T15:28:58.238Z,22.86
2022-09-01T15:32:59.769Z,22.92
2022-09-01T15:37:01.173Z,22.24
2022-09-01T15:41:02.842Z,22.63
2022-09-01T15:45:11.052Z,22.50
2022-09-01T15:49:12.880Z,22.60
2022-09-01T15:53:14.347Z,22.43
2022-09-01T15:57:15.757Z,22.09
2022-09-01T16:01:18.793Z,21.77
2022-09-01T16:05:20.299Z,21.95
2022-09-01T16:09:21.917Z,21.84
2022-09-01T16:13:23.564Z,21.61
2022-09-01T16:17:46.812Z,21.91
2022-09-01T16:21:59.966Z,22.72
2022-09-01T16:26:01.544Z,22.63
2022-09-01T16:30:09.565Z,21.82
2022-09-01T16:34:18.132Z,22.22
2022-09-01T16:38:39.866Z,22.54
2022-09-01T16:43:00.016Z,22.21
2022-09-01T16:47:25.067Z,22.86
2022-09-01T16:51:52.619Z,22.68
2022-09-01T16:56:14.994Z,24.13
2022-09-01T17:00:20.486Z,24.04
2022-09-01T17:04:51.201Z,24.53
2022-09-01T17:09:02.610Z,23.29
2022-09-01T17:13:21.992Z,23.04
2022-09-01T17:17:34.499Z,23.73
2022-09-01T17:21:46.062Z,22.76
2022-09-01T17:25:58.848Z,21.20
2022-09-01T17:30:01.647Z,20.85
2022-09-01T17:34:20.490Z,20.13
2022-09-01T17:38:28.090Z,19.05
2022-09-01T17:42:33.649Z,19.26
2022-09-01T17:46:46.884Z,18.86
2022-09-01T17:50:54.926Z,19.19
2022-09-01T17:55:21.951Z,18.58
2022-09-01T17:59:42.076Z,17.78
2022-09-01T18:04:11.729Z,17.60
2022-09-01T18:08:31.156Z,17.59
2022-09-01T18:12:39.195Z,17.20
2022-09-01T18:17:10.550Z,17.04
2022-09-01T18:21:15.601Z,16.91
2022-09-01T18:25:22.740Z,17.20
2022-09-01T18:29:29.484Z,17.52
2022-09-01T18:33:59.207Z,17.44
2022-09-01T18:38:09.410Z,17.31
2022-09-01T18:42:33.950Z,17.16
2022-09-01T18:46:59.938Z,17.16
2022-09-01T18:51:18.252Z,17.05
2022-09-01T18:55:46.241Z,16.78
2022-09-01T19:00:01.169Z,16.91
2022-09-01T19:04:10.087Z,16.86
2022-09-01T19:08:17.853Z,16.73
2022-09-01T19:12:19.370Z,16.58
2022-09-01T19:16:34.088Z,16.45
2022-09-01T19:20:43.739Z,16.39
2022-09-01T19:24:53.509Z,16.25
2022-09-01T19:29:00.980Z,16.19
2022-09-01T19:33:05.037Z,16.11
2022-09-01T19:37:10.181Z,15.52
2022-09-01T19:41:20.956Z,15.84
2022-09-01T19:45:35.013Z,15.41
2022-09-01T19:49:47.679Z,15.77
2022-09-01T19:54:03.077Z,16.02
2022-09-01T19:58:23.956Z,16.02
2022-09-01T20:02:41.032Z,15.87
2022-09-01T20:06:47.108Z,15.74
2022-09-01T20:11:01.347Z,15.75
2022-09-01T20:15:20.063Z,15.64
2022-09-01T20:19:29.747Z,15.68
2022-09-01T20:23:33.115Z,15.17
2022-09-01T20:27:34.511Z,14.51
2022-09-01T20:31:41.103Z,14.59
2022-09-01T20:35:52.563Z,14.60
2022-09-01T20:40:10.689Z,14.91
2022-09-01T20:44:26.382Z,14.73
2022-09-01T20:48:30.260Z,15.22
2022-09-01T20:52:50.557Z,14.83
2022-09-01T20:57:13.888Z,15.29
2022-09-01T21:01:32.275Z,14.66
2022-09-01T21:05:45.373Z,14.53
2022-09-01T21:09:49.828Z,14.73
2022-09-01T21:13:58.300Z,14.50
2022-09-01T21:18:37.637Z,14.84
2022-09-01T21:22:39.244Z,14.74
2022-09-01T21:26:40.817Z,14.79
2022-09-01T21:30:42.275Z,14.62
2022-09-01T21:34:45.307Z,14.35
2022-09-01T21:38:46.724Z,14.32
2022-09-01T21:42:54.430Z,14.19
2022-09-01T21:46:56.813Z,14.19
2022-09-01T21:50:58.268Z,13.97
2022-09-01T21:54:59.797Z,14.17
2022-09-01T21:59:01.298Z,13.87
2022-09-01T22:03:03.493Z,13.47
2022-09-01T22:07:06.798Z,13.27
2022-09-01T22:11:09.929Z,13.63
2022-09-01T22:15:13.495Z,13.42
2022-09-01T22:19:15.633Z,13.36
2022-09-01T22:23:20.156Z,13.51
2022-09-01T22:27:21.569Z,13.53
2022-09-01T22:31:24.608Z,13.30
2022-09-01T22:35:26.180Z,13.60
2022-09-01T22:39:28.055Z,13.78
2022-09-01T22:43:30.702Z,13.81
2022-09-01T22:47:32.368Z,13.51
2022-09-01T22:51:41.506Z,13.37
2022-09-01T22:55:46.081Z,13.52
2022-09-01T22:59:47.499Z,13.54
2022-09-01T23:03:48.995Z,13.67
2022-09-01T23:07:53.776Z,13.53
2022-09-01T23:11:56.415Z,13.48
2022-09-01T23:15:59.530Z,13.47
2022-09-01T23:20:02.191Z,13.32
2022-09-01T23:24:04.941Z,13.38
2022-09-01T23:28:06.630Z,13.37
2022-09-01T23:32:08.194Z,13.21
2022-09-01T23:36:11.983Z,13.22
2022-09-01T23:40:14.173Z,13.16
2022-09-01T23:44:16.566Z,13.26
2022-09-01T23:48:18.650Z,13.14
2022-09-01T23:52:20.077Z,13.16
2022-09-01T23:56:24.329Z,13.12
